Time;durP1;ratioP1;P1;durP2;ratioP2;P2;SDS_P1;SDS_P2;PMS_P1;PMS_P2;Temp;Humidity;BMP_temperature;BMP_pressure;BME280_temperature;BME280_humidity;BME280_pressure;Samples;Min_cycle;Max_cycle;Signal;HPM_P1;HPM_P2
2021/09/03 07:31:02;;;;;;;18.80;16.27;;;;;;;;;;6242694;22;20397;-60
2021/09/03 07:33:28;;;;;;;19.48;15.65;;;;;;;;;;6240024;23;20446;-60
2021/09/03 07:35:54;;;;;;;18.67;15.07;;;;;;;;;;6240052;23;20429;-59
2021/09/03 07:38:20;;;;;;;18.67;15.60;;;;;;;;;;6239544;23;20393;-58
2021/09/03 07:40:46;;;;;;;22.02;16.13;;;;;;;;;;6239862;23;20338;-59
2021/09/03 07:43:13;;;;;;;20.20;16.48;;;;;;;;;;6240460;23;20342;-58
2021/09/03 07:45:40;;;;;;;22.95;18.08;;;;;;;;;;6240476;23;20358;-58
2021/09/03 07:48:06;;;;;;;19.85;16.48;;;;;;;;;;6239942;23;20679;-59
2021/09/03 07:50:33;;;;;;;18.95;15.65;;;;;;;;;;6240391;23;20967;-59
2021/09/03 07:53:00;;;;;;;21.42;16.90;;;;;;;;;;6240088;23;20413;-58
2021/09/03 07:55:26;;;;;;;20.95;17.58;;;;;;;;;;6239952;23;20403;-58
2021/09/03 07:57:52;;;;;;;22.70;17.85;;;;;;;;;;6239787;23;20381;-60
2021/09/03 08:00:18;;;;;;;22.30;17.65;;;;;;;;;;6240162;23;20734;-57
2021/09/03 08:02:44;;;;;;;23.73;18.42;;;;;;;;;;6240427;23;20365;-63
2021/09/03 08:05:11;;;;;;;21.95;17.60;;;;;;;;;;6239956;23;20609;-60
2021/09/03 08:07:41;;;;;;;22.70;18.33;;;;;;;;;;6237752;23;20427;-59
2021/09/03 08:10:08;;;;;;;22.50;17.55;;;;;;;;;;6238578;23;20338;-58
2021/09/03 08:12:34;;;;;;;22.48;17.50;;;;;;;;;;6237876;23;20338;-58
2021/09/03 08:15:00;;;;;;;21.52;17.55;;;;;;;;;;6241437;23;20345;-60
2021/09/03 08:17:26;;;;;;;23.13;17.60;;;;;;;;;;6240125;23;20381;-59
2021/09/03 08:19:52;;;;;;;20.13;16.13;;;;;;;;;;6214230;23;20477;-56
2021/09/03 08:22:18;;;;;;;22.13;17.08;;;;;;;;;;6241779;23;20775;-58
2021/09/03 08:24:44;;;;;;;21.35;16.85;;;;;;;;;;6241045;23;20330;-58
2021/09/03 08:27:10;;;;;;;20.83;16.48;;;;;;;;;;6241643;23;20342;-59
2021/09/03 08:29:38;;;;;;;20.15;15.85;;;;;;;;;;6240864;23;20401;-58
2021/09/03 08:32:04;;;;;;;20.38;16.02;;;;;;;;;;6241169;23;20334;-58
2021/09/03 08:34:30;;;;;;;19.65;15.80;;;;;;;;;;6240831;23;20666;-56
2021/09/03 08:36:56;;;;;;;18.90;15.65;;;;;;;;;;6241195;23;20377;-60
2021/09/03 08:39:23;;;;;;;20.92;15.75;;;;;;;;;;6240987;23;20346;-61
2021/09/03 08:41:49;;;;;;;18.40;14.82;;;;;;;;;;6241349;23;20334;-57
2021/09/03 08:44:15;;;;;;;18.55;15.82;;;;;;;;;;6241543;23;20335;-57
2021/09/03 08:46:44;;;;;;;20.23;15.90;;;;;;;;;;6242029;23;20349;-53
2021/09/03 08:49:10;;;;;;;19.30;15.50;;;;;;;;;;6242253;23;20667;-55
2021/09/03 08:51:36;;;;;;;19.60;15.30;;;;;;;;;;6242075;23;20764;-57
2021/09/03 08:54:03;;;;;;;20.13;15.27;;;;;;;;;;6240876;23;20343;-59
2021/09/03 08:56:29;;;;;;;21.08;15.93;;;;;;;;;;6241885;23;20338;-58
2021/09/03 08:58:55;;;;;;;18.45;14.75;;;;;;;;;;6241071;23;20560;-60
2021/09/03 09:01:21;;;;;;;18.77;15.60;;;;;;;;;;6240291;23;20342;-60
2021/09/03 09:03:49;;;;;;;18.85;15.38;;;;;;;;;;6241886;23;20362;-60
2021/09/03 09:06:28;;;;;;;19.70;15.18;;;;;;;;;;6240993;23;20382;-61
2021/09/03 09:08:56;;;;;;;18.98;15.32;;;;;;;;;;6240874;23;20338;-61
2021/09/03 09:11:26;;;;;;;18.25;15.05;;;;;;;;;;6241436;23;20341;-55
2021/09/03 09:13:52;;;;;;;18.83;14.93;;;;;;;;;;6242696;23;20659;-60
2021/09/03 09:16:19;;;;;;;19.75;14.77;;;;;;;;;;6240599;23;20334;-61
2021/09/03 09:18:53;;;;;;;19.83;15.35;;;;;;;;;;6240512;23;20548;-61
2021/09/03 09:21:20;;;;;;;19.70;15.00;;;;;;;;;;6240860;23;20342;-53
2021/09/03 09:23:49;;;;;;;18.80;14.40;;;;;;;;;;6240624;23;20452;-55
2021/09/03 09:26:18;;;;;;;17.40;14.25;;;;;;;;;;6240612;23;20414;-55
2021/09/03 09:28:46;;;;;;;16.90;14.20;;;;;;;;;;6240939;23;20354;-50
2021/09/03 09:31:14;;;;;;;18.92;14.45;;;;;;;;;;6269498;22;20394;-56
2021/09/03 09:33:44;;;;;;;19.00;14.07;;;;;;;;;;6270326;22;20332;-57
2021/09/03 09:36:10;;;;;;;18.77;14.68;;;;;;;;;;6270657;22;20336;-57
2021/09/03 09:38:36;;;;;;;17.98;14.23;;;;;;;;;;6270854;22;20372;-57
2021/09/03 09:41:04;;;;;;;18.02;14.38;;;;;;;;;;6269699;22;20344;-59
2021/09/03 09:43:37;;;;;;;18.98;14.32;;;;;;;;;;6243460;22;20356;-53
2021/09/03 09:46:09;;;;;;;18.77;14.60;;;;;;;;;;6271539;22;20340;-54
2021/09/03 09:48:51;;;;;;;17.40;14.30;;;;;;;;;;6271752;22;20420;-57
2021/09/03 09:51:21;;;;;;;18.08;14.23;;;;;;;;;;6270899;22;20712;-49
2021/09/03 09:54:00;;;;;;;17.93;14.47;;;;;;;;;;6270993;22;20344;-58
2021/09/03 09:56:28;;;;;;;19.17;14.80;;;;;;;;;;6245181;22;20478;-59
2021/09/03 09:58:55;;;;;;;18.42;15.35;;;;;;;;;;6271764;22;20376;-59
2021/09/03 10:01:22;;;;;;;18.50;14.85;;;;;;;;;;6271399;22;20333;-59
2021/09/03 10:03:49;;;;;;;18.63;15.48;;;;;;;;;;6271581;22;20432;-59
2021/09/03 10:06:16;;;;;;;18.55;14.43;;;;;;;;;;6271849;22;20352;-59
2021/09/03 10:08:45;;;;;;;18.08;14.38;;;;;;;;;;6243316;22;20354;-59
2021/09/03 10:11:12;;;;;;;16.85;14.10;;;;;;;;;;6271196;22;20337;-59
2021/09/03 10:13:38;;;;;;;18.00;14.40;;;;;;;;;;6271578;22;20335;-59
2021/09/03 10:16:04;;;;;;;18.08;14.57;;;;;;;;;;6271128;22;20352;-59
2021/09/03 10:18:32;;;;;;;17.47;14.20;;;;;;;;;;6271520;22;20386;-59
2021/09/03 10:20:58;;;;;;;17.83;14.38;;;;;;;;;;6271389;22;20761;-59
2021/09/03 10:23:43;;;;;;;16.90;14.03;;;;;;;;;;6270694;22;20340;-59
2021/09/03 10:26:09;;;;;;;16.55;13.63;;;;;;;;;;6270278;22;20329;-59
2021/09/03 10:28:35;;;;;;;18.67;14.65;;;;;;;;;;6271122;22;20411;-59
2021/09/03 10:31:05;;;;;;;17.88;14.45;;;;;;;;;;6271475;22;20403;-59
2021/09/03 10:33:38;;;;;;;18.38;14.40;;;;;;;;;;6270633;22;20341;-59
2021/09/03 10:36:05;;;;;;;17.13;14.52;;;;;;;;;;6244088;22;20352;-59
2021/09/03 10:38:32;;;;;;;17.07;14.47;;;;;;;;;;6270916;22;20372;-59
2021/09/03 10:40:59;;;;;;;17.95;14.95;;;;;;;;;;6244167;22;20347;-59
2021/09/03 10:43:44;;;;;;;18.23;14.95;;;;;;;;;;6271100;22;20418;-59
2021/09/03 10:46:12;;;;;;;18.10;14.82;;;;;;;;;;6271710;22;20332;-58
2021/09/03 10:48:38;;;;;;;18.98;15.48;;;;;;;;;;6271573;22;20618;-59
2021/09/03 10:51:04;;;;;;;16.58;14.25;;;;;;;;;;6271244;22;20417;-59
2021/09/03 10:53:36;;;;;;;18.60;15.05;;;;;;;;;;6243278;22;20372;-59
2021/09/03 10:56:02;;;;;;;16.55;14.27;;;;;;;;;;6243295;22;20333;-59
2021/09/03 10:58:37;;;;;;;15.75;13.57;;;;;;;;;;6244248;22;20444;-58
2021/09/03 11:01:12;;;;;;;16.95;13.30;;;;;;;;;;6271672;22;20839;-58
2021/09/03 11:03:44;;;;;;;17.52;13.85;;;;;;;;;;6244843;22;20348;-57
2021/09/03 11:06:14;;;;;;;14.73;13.02;;;;;;;;;;6272129;22;20419;-57
2021/09/03 11:08:41;;;;;;;15.68;13.10;;;;;;;;;;6271204;22;20771;-57
2021/09/03 11:11:39;;;;;;;13.98;12.48;;;;;;;;;;6271407;22;20450;-57
2021/09/03 11:14:06;;;;;;;14.40;12.65;;;;;;;;;;6188714;22;20777;-57
2021/09/03 11:16:48;;;;;;;14.73;12.98;;;;;;;;;;6270780;22;21048;-58
2021/09/03 11:19:34;;;;;;;14.98;12.75;;;;;;;;;;6270325;22;20368;-57
2021/09/03 11:22:06;;;;;;;15.02;12.15;;;;;;;;;;6270701;22;20439;-56
2021/09/03 11:24:37;;;;;;;13.07;11.63;;;;;;;;;;6242467;22;20380;-57
2021/09/03 11:27:06;;;;;;;14.65;11.93;;;;;;;;;;6270441;22;20329;-61
2021/09/03 11:29:36;;;;;;;13.75;11.23;;;;;;;;;;6269933;22;20795;-60
2021/09/03 11:32:07;;;;;;;12.77;11.35;;;;;;;;;;6269687;22;20653;-61
2021/09/03 11:34:43;;;;;;;17.25;11.90;;;;;;;;;;6270535;22;20332;-56
2021/09/03 11:37:09;;;;;;;16.05;11.50;;;;;;;;;;6243375;22;20383;-59
2021/09/03 11:39:36;;;;;;;13.93;10.70;;;;;;;;;;6271947;22;20462;-56
2021/09/03 11:42:03;;;;;;;14.23;11.60;;;;;;;;;;6243351;22;20371;-57
2021/09/03 11:44:29;;;;;;;14.70;11.10;;;;;;;;;;6270160;22;20383;-58
2021/09/03 11:46:56;;;;;;;16.15;11.65;;;;;;;;;;6271665;22;20343;-58
2021/09/03 11:49:23;;;;;;;15.52;11.50;;;;;;;;;;6270643;22;20424;-58
